createdAt,value
2023-08-11T00:04:01.141Z,4.60
2023-08-11T00:09:22.909Z,4.38
2023-08-11T00:14:44.620Z,4.50
2023-08-11T00:20:07.467Z,4.93
2023-08-11T00:25:29.270Z,4.65
2023-08-11T00:30:50.971Z,5.30
2023-08-11T00:36:12.871Z,5.05
2023-08-11T00:41:34.643Z,4.82
2023-08-11T00:46:56.589Z,4.70
2023-08-11T00:52:18.960Z,4.90
2023-08-11T00:57:41.176Z,4.60
2023-08-11T01:03:03.031Z,5.63
2023-08-11T01:08:55.702Z,5.30
2023-08-11T01:14:36.304Z,4.88
2023-08-11T01:19:59.447Z,5.07
2023-08-11T01:25:21.929Z,5.20
2023-08-11T01:30:43.713Z,5.20
2023-08-11T01:36:05.740Z,5.38
2023-08-11T01:41:27.486Z,5.45
2023-08-11T01:46:52.549Z,5.88
2023-08-11T01:52:14.374Z,5.70
2023-08-11T01:57:41.830Z,5.85
2023-08-11T02:03:07.109Z,6.03
2023-08-11T02:08:28.877Z,6.35
2023-08-11T02:13:50.575Z,5.85
2023-08-11T02:19:12.377Z,5.70
2023-08-11T02:24:34.088Z,5.75
2023-08-11T02:29:55.788Z,5.97
2023-08-11T02:35:17.523Z,5.53
2023-08-11T02:40:39.248Z,6.50
2023-08-11T02:46:01.132Z,5.65
2023-08-11T02:51:22.914Z,6.15
2023-08-11T02:56:48.920Z,6.18
2023-08-11T03:02:10.964Z,5.73
2023-08-11T03:07:32.930Z,6.25
2023-08-11T03:12:54.618Z,5.95
2023-08-11T03:18:16.398Z,6.90
2023-08-11T03:23:38.152Z,6.72
2023-08-11T03:28:59.889Z,6.43
2023-08-11T03:34:21.641Z,6.72
2023-08-11T03:39:43.419Z,6.38
2023-08-11T03:45:05.535Z,6.68
2023-08-11T03:50:27.344Z,6.90
2023-08-11T03:55:50.100Z,6.63
2023-08-11T04:01:11.893Z,7.05
2023-08-11T04:06:33.656Z,7.20
2023-08-11T04:11:55.387Z,6.63
2023-08-11T04:17:17.196Z,6.95
2023-08-11T04:22:39.630Z,6.47
2023-08-11T04:28:01.437Z,6.65
2023-08-11T04:33:23.136Z,6.43
2023-08-11T04:38:44.838Z,6.75
2023-08-11T04:44:06.633Z,6.32
2023-08-11T04:49:28.349Z,6.38
2023-08-11T04:54:50.074Z,6.45
2023-08-11T05:00:12.183Z,6.45
2023-08-11T05:05:33.926Z,6.93
2023-08-11T05:10:55.668Z,6.68
2023-08-11T05:16:17.390Z,7.60
2023-08-11T05:21:39.209Z,7.53
2023-08-11T05:27:00.925Z,6.68
2023-08-11T05:32:23.292Z,7.03
2023-08-11T05:37:45.054Z,7.45
2023-08-11T05:43:07.057Z,5.97
2023-08-11T05:48:28.808Z,5.97
2023-08-11T05:53:53.128Z,6.75
2023-08-11T05:59:16.016Z,5.72
2023-08-11T06:04:37.815Z,5.75
2023-08-11T06:10:02.255Z,5.28
2023-08-11T06:15:24.546Z,5.50
2023-08-11T06:20:46.433Z,5.70
2023-08-11T06:26:08.242Z,5.45
2023-08-11T06:31:29.965Z,9.15
2023-08-11T06:36:51.695Z,4.95
2023-08-11T06:42:13.416Z,5.05
2023-08-11T06:47:35.655Z,4.00
2023-08-11T06:53:00.117Z,3.45
2023-08-11T06:58:24.789Z,2.90
2023-08-11T07:03:48.177Z,2.60
2023-08-11T07:09:09.875Z,2.78
2023-08-11T07:14:31.592Z,2.17
2023-08-11T07:19:53.315Z,2.60
2023-08-11T07:25:15.060Z,2.30
2023-08-11T07:30:36.848Z,4.68
2023-08-11T07:35:58.754Z,2.40
2023-08-11T07:41:20.453Z,2.35
2023-08-11T07:46:42.470Z,2.20
2023-08-11T07:52:04.360Z,2.22
2023-08-11T07:57:26.132Z,1.30
2023-08-11T08:02:48.523Z,1.90
2023-08-11T08:08:11.237Z,1.75
2023-08-11T08:13:33.344Z,1.90
2023-08-11T08:18:55.133Z,1.85
2023-08-11T08:24:16.844Z,1.80
2023-08-11T08:29:38.595Z,2.30
2023-08-11T08:35:00.416Z,1.90
2023-08-11T08:40:22.209Z,1.67
2023-08-11T08:45:44.934Z,2.28
2023-08-11T08:51:07.367Z,1.98
2023-08-11T08:56:29.759Z,2.20
2023-08-11T09:01:51.927Z,1.40
2023-08-11T09:07:13.831Z,1.63
2023-08-11T09:12:35.673Z,1.77
2023-08-11T09:17:59.794Z,2.38
2023-08-11T09:23:23.443Z,1.92
2023-08-11T09:34:14.068Z,1.40
2023-08-11T09:39:37.145Z,1.63
2023-08-11T09:44:58.871Z,2.10
2023-08-11T09:50:22.507Z,1.42
2023-08-11T09:55:44.952Z,1.60
2023-08-11T10:01:20.652Z,1.30
2023-08-11T10:06:49.847Z,2.30
2023-08-11T10:12:12.820Z,5.05
2023-08-11T10:17:35.327Z,2.60
2023-08-11T10:22:58.217Z,6.85
2023-08-11T10:28:20.737Z,1.65
2023-08-11T10:33:49.248Z,1.70
2023-08-11T10:39:11.026Z,1.58
2023-08-11T10:44:34.161Z,2.20
2023-08-11T10:49:57.294Z,1.75
2023-08-11T10:55:19.116Z,1.50
2023-08-11T11:00:41.598Z,1.40
2023-08-11T11:06:07.473Z,1.35
2023-08-11T11:11:29.205Z,1.30
2023-08-11T11:16:51.147Z,1.60
2023-08-11T11:22:14.173Z,1.27
2023-08-11T11:27:41.956Z,2.17
2023-08-11T11:33:04.937Z,2.17
2023-08-11T11:38:26.942Z,1.50
2023-08-11T11:43:50.797Z,1.42
2023-08-11T11:49:28.045Z,1.37
2023-08-11T11:54:56.021Z,1.95
2023-08-11T12:00:17.809Z,1.50
2023-08-11T12:05:40.373Z,1.40
2023-08-11T12:11:05.013Z,1.92
2023-08-11T12:21:50.995Z,1.65
2023-08-11T12:27:12.695Z,1.20
2023-08-11T12:32:34.422Z,1.50
2023-08-11T12:37:56.165Z,1.80
2023-08-11T12:43:17.999Z,1.73
2023-08-11T12:48:39.721Z,1.40
2023-08-11T12:54:01.438Z,1.40
2023-08-11T12:59:23.159Z,1.83
2023-08-11T13:04:45.075Z,1.20
2023-08-11T13:10:07.584Z,1.60
2023-08-11T13:15:29.376Z,1.10
2023-08-11T13:20:51.086Z,1.42
2023-08-11T13:26:12.806Z,1.60
2023-08-11T13:31:34.554Z,1.42
2023-08-11T13:36:56.302Z,1.33
2023-08-11T13:42:18.034Z,1.50
2023-08-11T13:47:39.787Z,1.83
2023-08-11T13:53:01.528Z,1.50
2023-08-11T13:58:23.312Z,1.60
2023-08-11T14:03:45.067Z,1.70
2023-08-11T14:09:06.851Z,1.73
2023-08-11T14:14:28.589Z,1.67
2023-08-11T14:19:50.324Z,1.73
2023-08-11T14:25:12.069Z,1.60
2023-08-11T14:30:34.055Z,1.73
2023-08-11T14:41:24.733Z,1.25
2023-08-11T14:46:46.450Z,1.45
2023-08-11T14:52:08.607Z,1.42
2023-08-11T14:57:30.488Z,1.65
2023-08-11T15:02:52.249Z,1.83
2023-08-11T15:08:14.071Z,1.70
2023-08-11T15:13:35.783Z,1.55
2023-08-11T15:18:57.511Z,1.60
2023-08-11T15:24:19.227Z,1.80
2023-08-11T15:29:40.933Z,1.60
2023-08-11T15:35:02.916Z,1.67
2023-08-11T15:40:24.642Z,1.70
2023-08-11T15:45:46.394Z,1.50
2023-08-11T15:51:08.135Z,1.65
2023-08-11T15:56:29.875Z,2.13
2023-08-11T16:02:07.417Z,1.80
2023-08-11T16:07:30.942Z,1.85
2023-08-11T16:12:52.735Z,1.88
2023-08-11T16:18:14.576Z,1.70
2023-08-11T16:23:36.571Z,1.60
2023-08-11T16:28:58.338Z,1.67
2023-08-11T16:34:23.558Z,1.55
2023-08-11T16:39:45.266Z,1.40
2023-08-11T16:45:07.292Z,1.60
2023-08-11T16:50:29.016Z,1.73
2023-08-11T16:55:50.771Z,1.88
2023-08-11T17:01:12.667Z,1.20
2023-08-11T17:06:34.421Z,1.60
2023-08-11T17:11:56.152Z,1.70
2023-08-11T17:17:17.930Z,1.35
2023-08-11T17:22:39.717Z,1.58
2023-08-11T17:28:01.444Z,1.52
2023-08-11T17:33:23.229Z,1.52
2023-08-11T17:38:44.960Z,1.58
2023-08-11T17:44:06.928Z,1.40
2023-08-11T17:49:28.659Z,2.13
2023-08-11T17:54:50.504Z,1.77
2023-08-11T18:00:12.593Z,1.67
2023-08-11T18:05:40.842Z,1.40
2023-08-11T18:11:02.559Z,1.50
2023-08-11T18:16:24.343Z,1.65
2023-08-11T18:21:46.125Z,2.20
2023-08-11T18:27:07.868Z,2.03
2023-08-11T18:32:29.625Z,1.98
2023-08-11T18:37:51.336Z,2.80
2023-08-11T18:43:13.047Z,2.45
2023-08-11T18:48:34.814Z,2.30
2023-08-11T18:53:56.711Z,2.17
2023-08-11T18:59:18.491Z,2.28
2023-08-11T19:04:40.246Z,2.50
2023-08-11T19:10:02.007Z,3.03
2023-08-11T19:15:23.801Z,2.50
2023-08-11T19:20:47.410Z,2.20
2023-08-11T19:26:09.131Z,2.20
2023-08-11T19:31:30.895Z,2.88
2023-08-11T19:36:52.640Z,2.72
2023-08-11T19:42:14.345Z,3.55
2023-08-11T19:47:36.107Z,3.50
2023-08-11T19:52:57.896Z,4.68
2023-08-11T19:58:19.647Z,3.60
2023-08-11T20:03:41.336Z,3.75
2023-08-11T20:09:03.229Z,3.88
2023-08-11T20:14:25.021Z,3.60
2023-08-11T20:19:46.763Z,7.38
2023-08-11T20:25:08.939Z,4.20
2023-08-11T20:30:30.676Z,4.55
2023-08-11T20:35:52.372Z,3.67
2023-08-11T20:41:14.097Z,3.72
2023-08-11T20:46:35.829Z,3.40
2023-08-11T20:51:57.527Z,3.75
2023-08-11T20:57:19.278Z,4.30
2023-08-11T21:02:40.970Z,3.65
2023-08-11T21:08:02.860Z,4.00
2023-08-11T21:13:24.592Z,3.67
2023-08-11T21:18:46.319Z,3.45
2023-08-11T21:24:08.211Z,3.10
2023-08-11T21:29:31.163Z,3.75
2023-08-11T21:34:52.889Z,3.10
2023-08-11T21:40:14.602Z,4.10
2023-08-11T21:45:36.301Z,4.57
2023-08-11T21:50:58.008Z,3.90
2023-08-11T21:56:19.812Z,4.10
2023-08-11T22:01:41.567Z,4.25
2023-08-11T22:07:05.452Z,4.57
2023-08-11T22:12:27.407Z,4.38
2023-08-11T22:17:49.211Z,4.68
2023-08-11T22:23:11.009Z,3.75
2023-08-11T22:28:32.793Z,4.53
2023-08-11T22:33:54.537Z,3.78
2023-08-11T22:39:16.264Z,3.65
2023-08-11T22:44:38.019Z,4.05
2023-08-11T22:49:59.741Z,3.88
2023-08-11T22:55:21.455Z,4.50
2023-08-11T23:00:43.213Z,5.07
2023-08-11T23:06:04.900Z,4.20
2023-08-11T23:11:26.664Z,4.95
2023-08-11T23:16:48.397Z,5.18
2023-08-11T23:22:10.115Z,4.72
2023-08-11T23:27:31.986Z,5.57
2023-08-11T23:32:53.798Z,5.53
2023-08-11T23:38:16.387Z,5.22
2023-08-11T23:43:38.205Z,5.68
2023-08-11T23:48:59.948Z,6.03
2023-08-11T23:54:21.670Z,5.72
2023-08-11T23:59:43.387Z,6.15
